createdAt,value
2018-02-25T00:02:07.498Z,101336.55
2018-02-25T00:04:34.969Z,101334.27
2018-02-25T00:07:02.585Z,101343.13
2018-02-25T00:09:30.034Z,101344.52
2018-02-25T00:11:57.472Z,101344.55
2018-02-25T00:14:25.094Z,101357.73
2018-02-25T00:16:52.533Z,101364.58
2018-02-25T00:19:19.981Z,101352.78
2018-02-25T00:21:47.581Z,101352.34
2018-02-25T00:24:15.330Z,101352.80
2018-02-25T00:26:42.825Z,101359.06
2018-02-25T00:29:10.529Z,101365.95
2018-02-25T00:31:37.984Z,101368.08
2018-02-25T00:34:05.441Z,101364.02
2018-02-25T00:36:33.345Z,101364.18
2018-02-25T00:39:00.785Z,101361.04
2018-02-25T00:41:28.225Z,101361.30
2018-02-25T00:43:55.720Z,101355.11
2018-02-25T00:46:23.166Z,101351.30
2018-02-25T00:48:50.608Z,101358.38
2018-02-25T00:51:18.193Z,101349.13
2018-02-25T00:53:45.641Z,101349.44
2018-02-25T00:56:13.097Z,101354.32
2018-02-25T00:58:40.789Z,101357.36
2018-02-25T01:01:08.233Z,101364.53
2018-02-25T01:03:35.677Z,101361.06
2018-02-25T01:06:03.405Z,101365.21
2018-02-25T01:08:30.844Z,101365.59
2018-02-25T01:10:58.541Z,101365.43
2018-02-25T01:13:26.053Z,101373.67
2018-02-25T01:15:53.514Z,101374.97
2018-02-25T01:18:20.957Z,101380.45
2018-02-25T01:20:48.524Z,101381.72
2018-02-25T01:23:16.037Z,101383.19
2018-02-25T01:25:43.533Z,101387.91
2018-02-25T01:28:11.161Z,101377.77
2018-02-25T01:30:38.638Z,101392.84
2018-02-25T01:33:06.081Z,101383.17
2018-02-25T01:35:33.917Z,101384.78
2018-02-25T01:38:01.369Z,101386.83
2018-02-25T01:40:28.853Z,101377.91
2018-02-25T01:42:56.461Z,101373.27
2018-02-25T01:45:23.916Z,101371.83
2018-02-25T01:47:51.386Z,101368.52
2018-02-25T01:50:19.073Z,101367.12
2018-02-25T01:52:46.521Z,101372.83
2018-02-25T01:55:13.961Z,101372.70
2018-02-25T01:57:41.516Z,101365.25
2018-02-25T02:00:08.978Z,101361.77
2018-02-25T02:02:36.481Z,101365.63
2018-02-25T02:05:03.949Z,101362.34
2018-02-25T02:07:31.394Z,101366.75
2018-02-25T02:09:58.987Z,101374.51
2018-02-25T02:12:26.713Z,101375.30
2018-02-25T02:14:54.173Z,101368.42
2018-02-25T02:17:21.621Z,101366.58
2018-02-25T02:19:49.128Z,101379.53
2018-02-25T02:22:16.769Z,101382.87
2018-02-25T02:24:44.232Z,101383.66
2018-02-25T02:27:11.773Z,101382.90
2018-02-25T02:29:39.215Z,101379.34
2018-02-25T02:32:06.657Z,101384.91
2018-02-25T02:34:34.450Z,101375.89
2018-02-25T02:37:01.915Z,101375.86
2018-02-25T02:39:29.356Z,101373.02
2018-02-25T02:41:56.820Z,101374.84
2018-02-25T02:44:24.261Z,101372.64
2018-02-25T02:46:52.130Z,101383.80
2018-02-25T02:49:19.575Z,101381.34
2018-02-25T02:51:47.022Z,101379.67
2018-02-25T02:54:14.487Z,101376.94
2018-02-25T02:56:41.928Z,101385.23
2018-02-25T02:59:09.885Z,101373.59
2018-02-25T03:01:37.497Z,101381.23
2018-02-25T03:04:04.951Z,101378.64
2018-02-25T03:06:32.416Z,101384.56
2018-02-25T03:09:00.201Z,101379.36
2018-02-25T03:11:27.852Z,101379.25
2018-02-25T03:13:55.302Z,101396.11
2018-02-25T03:16:22.750Z,101382.61
2018-02-25T03:18:50.220Z,101385.33
2018-02-25T03:21:17.670Z,101377.51
2018-02-25T03:23:45.376Z,101381.66
2018-02-25T03:26:12.817Z,101383.92
2018-02-25T03:28:40.265Z,101382.91
2018-02-25T03:31:07.730Z,101384.59
2018-02-25T03:33:35.193Z,101386.63
2018-02-25T03:36:03.029Z,101396.31
2018-02-25T03:38:30.590Z,101393.91
2018-02-25T03:40:58.050Z,101395.02
2018-02-25T03:43:26.334Z,101394.75
2018-02-25T03:45:53.837Z,101391.68
2018-02-25T03:48:21.505Z,101395.98
2018-02-25T03:50:48.955Z,101400.20
2018-02-25T03:53:16.421Z,101408.42
2018-02-25T03:55:44.057Z,101412.43
2018-02-25T03:58:11.506Z,101416.54
2018-02-25T04:00:39.365Z,101418.91
2018-02-25T04:03:06.837Z,101424.91
2018-02-25T04:05:34.284Z,101425.80
2018-02-25T04:08:01.760Z,101425.39
2018-02-25T04:10:29.214Z,101430.73
2018-02-25T04:12:56.845Z,101425.16
2018-02-25T04:15:24.289Z,101428.57
2018-02-25T04:17:51.729Z,101434.05
2018-02-25T04:20:19.213Z,101446.23
2018-02-25T04:22:46.669Z,101437.45
2018-02-25T04:25:14.413Z,101438.49
2018-02-25T04:27:41.853Z,101435.83
2018-02-25T04:30:09.293Z,101435.47
2018-02-25T04:32:36.791Z,101446.98
2018-02-25T04:35:04.241Z,101441.50
2018-02-25T04:37:31.825Z,101444.13
2018-02-25T04:39:59.265Z,101444.66
2018-02-25T04:42:27.945Z,101447.34
2018-02-25T04:44:55.425Z,101452.72
2018-02-25T04:47:22.866Z,101455.21
2018-02-25T04:49:50.345Z,101450.80
2018-02-25T04:52:17.873Z,101462.61
2018-02-25T04:54:45.418Z,101466.86
2018-02-25T04:57:12.909Z,101457.15
2018-02-25T04:59:40.349Z,101462.17
2018-02-25T05:02:07.824Z,101476.94
2018-02-25T05:04:35.299Z,101465.97
2018-02-25T05:07:02.748Z,101466.34
2018-02-25T05:09:30.265Z,101461.89
2018-02-25T05:11:57.709Z,101479.95
2018-02-25T05:14:25.408Z,101469.88
2018-02-25T05:16:52.861Z,101479.23
2018-02-25T05:19:20.305Z,101482.23
2018-02-25T05:21:47.769Z,101486.03
2018-02-25T05:24:15.253Z,101496.24
2018-02-25T05:26:42.737Z,101488.34
2018-02-25T05:29:10.521Z,101493.66
2018-02-25T05:31:37.993Z,101498.48
2018-02-25T05:34:05.452Z,101495.16
2018-02-25T05:36:32.902Z,101499.68
2018-02-25T05:39:00.710Z,101503.81
2018-02-25T05:41:28.332Z,101509.77
2018-02-25T05:43:55.781Z,101517.58
2018-02-25T05:46:23.257Z,101518.08
2018-02-25T05:48:50.697Z,101516.70
2018-02-25T05:51:18.522Z,101523.70
2018-02-25T05:53:45.972Z,101530.33
2018-02-25T05:56:13.436Z,101529.73
2018-02-25T05:58:40.897Z,101537.02
2018-02-25T06:01:08.341Z,101537.33
2018-02-25T06:03:36.021Z,101534.73
2018-02-25T06:06:03.461Z,101536.13
2018-02-25T06:08:30.905Z,101539.00
2018-02-25T06:10:58.372Z,101554.48
2018-02-25T06:13:25.842Z,101553.72
2018-02-25T06:15:53.469Z,101564.95
2018-02-25T06:18:20.932Z,101558.17
2018-02-25T06:20:48.378Z,101564.20
2018-02-25T06:23:15.884Z,101570.72
2018-02-25T06:25:43.344Z,101572.85
2018-02-25T06:28:11.557Z,101569.98
2018-02-25T06:30:39.072Z,101571.98
2018-02-25T06:33:06.525Z,101570.39
2018-02-25T06:35:33.988Z,101566.17
2018-02-25T06:38:01.485Z,101572.27
2018-02-25T06:40:30.140Z,101559.95
2018-02-25T06:42:57.665Z,101572.64
2018-02-25T06:45:25.597Z,101565.37
2018-02-25T06:47:53.120Z,101567.92
2018-02-25T06:50:20.558Z,101562.54
2018-02-25T06:52:48.176Z,101563.22
2018-02-25T06:55:15.622Z,101567.36
2018-02-25T06:57:43.073Z,101574.69
2018-02-25T07:00:10.572Z,101570.11
2018-02-25T07:02:38.017Z,101558.34
2018-02-25T07:05:05.653Z,101564.66
2018-02-25T07:07:33.097Z,101568.58
2018-02-25T07:10:00.547Z,101568.58
2018-02-25T07:12:28.016Z,101569.55
2018-02-25T07:14:55.475Z,101562.70
2018-02-25T07:17:23.180Z,101568.31
2018-02-25T07:19:50.628Z,101558.84
2018-02-25T07:22:18.080Z,101558.52
2018-02-25T07:24:45.565Z,101562.45
2018-02-25T07:27:13.516Z,101561.44
2018-02-25T07:29:41.245Z,101557.39
2018-02-25T07:32:08.710Z,101563.47
2018-02-25T07:34:36.162Z,101552.94
2018-02-25T07:37:03.625Z,101555.31
2018-02-25T07:39:31.144Z,101554.46
2018-02-25T07:41:58.801Z,101554.63
2018-02-25T07:44:26.245Z,101565.44
2018-02-25T07:46:53.722Z,101559.63
2018-02-25T07:49:21.201Z,101560.88
2018-02-25T07:51:48.665Z,101556.54
2018-02-25T07:54:16.146Z,101561.94
2018-02-25T07:56:43.605Z,101552.78
2018-02-25T07:59:11.057Z,101556.83
2018-02-25T08:01:38.533Z,101548.09
2018-02-25T08:04:05.978Z,101547.13
2018-02-25T08:06:33.465Z,101557.67
2018-02-25T08:09:00.909Z,101558.80
2018-02-25T08:11:28.349Z,101563.72
2018-02-25T08:13:55.914Z,101549.49
2018-02-25T08:16:23.437Z,101547.69
2018-02-25T08:18:51.045Z,101548.28
2018-02-25T08:21:18.489Z,101547.94
2018-02-25T08:23:45.933Z,101538.34
2018-02-25T08:26:13.705Z,101547.02
2018-02-25T08:28:41.168Z,101545.56
2018-02-25T08:31:08.638Z,101552.39
2018-02-25T08:33:36.080Z,101553.95
2018-02-25T08:36:03.534Z,101553.02
2018-02-25T08:38:31.014Z,101551.15
2018-02-25T08:40:58.481Z,101549.30
2018-02-25T08:43:26.098Z,101545.97
2018-02-25T08:45:53.560Z,101547.80
2018-02-25T08:48:21.018Z,101553.62
2018-02-25T08:50:48.484Z,101556.00
2018-02-25T08:53:15.929Z,101557.88
2018-02-25T08:55:43.565Z,101562.77
2018-02-25T08:58:11.012Z,101564.77
2018-02-25T09:00:38.471Z,101559.84
2018-02-25T09:03:05.934Z,101549.77
2018-02-25T09:05:33.409Z,101555.45
2018-02-25T09:08:00.879Z,101554.04
2018-02-25T09:10:28.367Z,101547.92
2018-02-25T09:12:56.072Z,101557.02
2018-02-25T09:15:23.536Z,101549.15
2018-02-25T09:17:50.991Z,101540.62
2018-02-25T09:20:18.637Z,101544.32
2018-02-25T09:22:46.062Z,101544.38
2018-02-25T09:25:14.025Z,101538.42
2018-02-25T09:27:41.512Z,101547.89
2018-02-25T09:30:09.673Z,101556.72
2018-02-25T09:32:37.158Z,101548.27
2018-02-25T09:35:04.684Z,101554.02
2018-02-25T09:37:32.147Z,101554.18
2018-02-25T09:39:59.629Z,101556.52
2018-02-25T09:42:27.085Z,101568.77
2018-02-25T09:44:54.561Z,101561.59
2018-02-25T09:47:22.026Z,101550.70
2018-02-25T09:49:49.470Z,101552.44
2018-02-25T09:52:16.934Z,101557.62
2018-02-25T09:54:44.373Z,101553.88
2018-02-25T09:57:11.849Z,101559.47
2018-02-25T09:59:39.290Z,101556.70
2018-02-25T10:02:06.732Z,101545.95
2018-02-25T10:04:34.220Z,101547.20
2018-02-25T10:07:01.709Z,101559.27
2018-02-25T10:09:29.560Z,101553.59
2018-02-25T10:11:57.507Z,101550.86
2018-02-25T10:14:24.963Z,101543.55
2018-02-25T10:16:52.442Z,101534.23
2018-02-25T10:19:19.905Z,101534.03
2018-02-25T10:21:47.589Z,101537.45
2018-02-25T10:24:15.114Z,101536.00
2018-02-25T10:26:42.581Z,101540.68
2018-02-25T10:29:10.045Z,101539.48
2018-02-25T10:31:37.517Z,101548.42
2018-02-25T10:34:04.996Z,101517.75
2018-02-25T10:36:32.445Z,101523.53
2018-02-25T10:38:59.901Z,101525.27
2018-02-25T10:41:27.384Z,101516.99
2018-02-25T10:43:54.834Z,101516.13
2018-02-25T10:46:22.694Z,101507.03
2018-02-25T10:48:50.169Z,101521.31
2018-02-25T10:51:17.653Z,101498.45
2018-02-25T10:53:45.126Z,101494.80
2018-02-25T10:56:12.572Z,101495.87
2018-02-25T10:58:40.553Z,101491.36
2018-02-25T11:01:08.102Z,101495.44
2018-02-25T11:03:35.632Z,101486.17
2018-02-25T11:06:03.100Z,101494.44
2018-02-25T11:08:30.560Z,101484.56
2018-02-25T11:10:58.318Z,101484.94
2018-02-25T11:13:25.781Z,101484.55
2018-02-25T11:15:53.236Z,101498.02
2018-02-25T11:18:20.713Z,101481.03
2018-02-25T11:20:48.258Z,101481.73
2018-02-25T11:23:15.753Z,101494.05
2018-02-25T11:25:43.229Z,101494.11
2018-02-25T11:28:10.677Z,101491.29
2018-02-25T11:30:38.152Z,101484.03
2018-02-25T11:33:05.602Z,101486.70
2018-02-25T11:35:33.085Z,101483.70
2018-02-25T11:38:00.541Z,101474.41
2018-02-25T11:40:27.985Z,101478.45
2018-02-25T11:42:55.453Z,101455.59
2018-02-25T11:45:23.071Z,101473.48
2018-02-25T11:47:50.975Z,101466.04
2018-02-25T11:50:18.433Z,101467.98
2018-02-25T11:52:45.878Z,101462.97
2018-02-25T11:55:13.392Z,101463.09
2018-02-25T11:57:40.833Z,101456.86
2018-02-25T12:00:08.628Z,101456.63
2018-02-25T12:02:36.073Z,101453.72
2018-02-25T12:05:03.522Z,101449.11
2018-02-25T12:07:30.987Z,101438.16
2018-02-25T12:09:58.441Z,101452.52
2018-02-25T12:12:26.194Z,101438.25
2018-02-25T12:14:59.273Z,101435.47
2018-02-25T12:17:21.102Z,101442.72
2018-02-25T12:19:48.602Z,101426.52
2018-02-25T12:22:16.045Z,101425.36
2018-02-25T12:24:43.730Z,101431.71
2018-02-25T12:27:11.169Z,101420.05
2018-02-25T12:29:38.638Z,101438.45
2018-02-25T12:32:06.585Z,101413.43
2018-02-25T12:34:34.049Z,101410.95
2018-02-25T12:37:02.514Z,101419.09
2018-02-25T12:39:29.975Z,101403.98
2018-02-25T12:41:57.445Z,101399.92
2018-02-25T12:44:24.932Z,101404.55
2018-02-25T12:46:52.397Z,101403.03
2018-02-25T12:49:20.029Z,101395.21
2018-02-25T12:51:47.501Z,101389.64
2018-02-25T12:54:14.968Z,101394.61
2018-02-25T12:56:42.446Z,101382.81
2018-02-25T12:59:09.910Z,101381.95
2018-02-25T13:01:37.613Z,101372.27
2018-02-25T13:04:05.058Z,101367.55
2018-02-25T13:06:32.533Z,101367.77
2018-02-25T13:09:00.001Z,101367.84
2018-02-25T13:11:27.449Z,101369.57
2018-02-25T13:13:55.265Z,101364.77
2018-02-25T13:16:22.748Z,101352.21
2018-02-25T13:18:50.241Z,101360.98
2018-02-25T13:21:17.736Z,101355.59
2018-02-25T13:23:45.185Z,101356.80
2018-02-25T13:26:12.672Z,101342.91
2018-02-25T13:28:40.120Z,101357.47
2018-02-25T13:31:08.449Z,101354.16
2018-02-25T13:33:36.022Z,101347.92
2018-02-25T13:36:03.465Z,101343.52
2018-02-25T13:38:30.952Z,101341.13
2018-02-25T13:40:58.395Z,101339.22
2018-02-25T13:43:25.893Z,101360.72
2018-02-25T13:45:53.385Z,101347.17
2018-02-25T13:48:20.826Z,101335.37
2018-02-25T13:50:48.309Z,101341.87
2018-02-25T13:53:15.799Z,101344.30
2018-02-25T13:55:43.237Z,101340.59
2018-02-25T13:58:10.715Z,101340.10
2018-02-25T14:00:38.160Z,101338.37
2018-02-25T14:03:05.599Z,101333.86
2018-02-25T14:05:33.211Z,101334.86
2018-02-25T14:08:00.653Z,101321.65
2018-02-25T14:10:28.096Z,101324.70
2018-02-25T14:12:55.873Z,101318.93
2018-02-25T14:15:23.401Z,101310.93
2018-02-25T14:17:50.850Z,101312.70
2018-02-25T14:20:18.428Z,101315.08
2018-02-25T14:22:45.869Z,101319.83
2018-02-25T14:25:13.322Z,101313.34
2018-02-25T14:27:40.785Z,101313.50
2018-02-25T14:30:08.245Z,101313.58
2018-02-25T14:32:36.033Z,101323.18
2018-02-25T14:35:03.822Z,101322.33
2018-02-25T14:37:31.271Z,101313.08
2018-02-25T14:39:58.731Z,101301.15
2018-02-25T14:42:26.791Z,101309.44
2018-02-25T14:44:54.258Z,101304.98
2018-02-25T14:47:21.712Z,101306.50
2018-02-25T14:49:49.153Z,101302.40
2018-02-25T14:52:16.650Z,101305.36
2018-02-25T14:54:44.086Z,101304.66
2018-02-25T14:57:11.669Z,101306.65
2018-02-25T14:59:39.109Z,101306.47
2018-02-25T15:02:06.562Z,101303.42
2018-02-25T15:04:34.025Z,101288.98
2018-02-25T15:07:01.470Z,101284.84
2018-02-25T15:09:29.118Z,101289.74
2018-02-25T15:11:56.554Z,101286.00
2018-02-25T15:14:23.993Z,101301.44
2018-02-25T15:16:51.462Z,101294.22
2018-02-25T15:19:18.916Z,101304.15
2018-02-25T15:21:46.554Z,101290.11
2018-02-25T15:24:14.043Z,101284.73
2018-02-25T15:26:41.486Z,101297.23
2018-02-25T15:29:08.966Z,101283.64
2018-02-25T15:31:36.508Z,101282.23
2018-02-25T15:34:03.981Z,101282.57
2018-02-25T15:36:31.430Z,101270.34
2018-02-25T15:38:58.949Z,101278.06
2018-02-25T15:41:27.206Z,101277.70
2018-02-25T15:43:54.668Z,101272.44
2018-02-25T15:46:22.132Z,101278.81
2018-02-25T15:48:49.573Z,101272.92
2018-02-25T15:51:17.215Z,101263.48
2018-02-25T15:53:44.669Z,101268.17
2018-02-25T15:56:12.146Z,101275.78
2018-02-25T15:58:39.610Z,101276.38
2018-02-25T16:01:07.053Z,101276.41
2018-02-25T16:03:35.577Z,101270.86
2018-02-25T16:06:03.028Z,101270.03
2018-02-25T16:08:30.479Z,101272.50
2018-02-25T16:10:57.955Z,101268.82
2018-02-25T16:13:25.445Z,101284.91
2018-02-25T16:15:53.061Z,101274.98
2018-02-25T16:18:20.838Z,101273.08
2018-02-25T16:20:48.293Z,101283.00
2018-02-25T16:23:15.753Z,101273.92
2018-02-25T16:25:43.231Z,101277.50
2018-02-25T16:28:10.750Z,101278.48
2018-02-25T16:30:38.273Z,101282.16
2018-02-25T16:33:05.726Z,101278.39
2018-02-25T16:35:33.217Z,101284.09
2018-02-25T16:38:00.665Z,101276.41
2018-02-25T16:40:28.148Z,101279.78
2018-02-25T16:42:55.621Z,101280.09
2018-02-25T16:45:23.061Z,101291.16
2018-02-25T16:47:50.522Z,101290.10
2018-02-25T16:50:17.982Z,101289.59
2018-02-25T16:52:45.842Z,101291.46
2018-02-25T16:55:13.486Z,101302.42
2018-02-25T16:57:40.930Z,101300.77
2018-02-25T17:00:08.396Z,101307.00
2018-02-25T17:02:35.841Z,101300.07
2018-02-25T17:05:03.317Z,101306.62
2018-02-25T17:07:30.766Z,101304.53
2018-02-25T17:09:58.229Z,101309.91
2018-02-25T17:12:25.714Z,101308.09
2018-02-25T17:14:53.217Z,101315.13
2018-02-25T17:17:21.879Z,101319.67
2018-02-25T17:19:49.604Z,101320.32
2018-02-25T17:22:17.054Z,101324.65
2018-02-25T17:24:44.533Z,101332.93
2018-02-25T17:27:12.455Z,101334.73
2018-02-25T17:29:40.225Z,101337.87
2018-02-25T17:32:07.670Z,101334.87
2018-02-25T17:34:35.258Z,101335.73
2018-02-25T17:37:02.742Z,101339.17
2018-02-25T17:39:30.223Z,101342.27
2018-02-25T17:41:57.730Z,101347.01
2018-02-25T17:44:25.200Z,101343.07
2018-02-25T17:46:52.677Z,101346.62
2018-02-25T17:49:20.180Z,101344.81
2018-02-25T17:51:47.643Z,101345.06
2018-02-25T17:54:15.234Z,101345.37
2018-02-25T17:56:42.685Z,101345.63
2018-02-25T17:59:10.133Z,101342.57
2018-02-25T18:01:37.610Z,101353.05
2018-02-25T18:04:05.082Z,101345.59
2018-02-25T18:06:32.989Z,101348.89
2018-02-25T18:09:00.485Z,101344.31
2018-02-25T18:11:27.932Z,101348.25
2018-02-25T18:13:55.681Z,101346.42
2018-02-25T18:16:24.059Z,101347.84
2018-02-25T18:18:51.769Z,101339.41
2018-02-25T18:21:19.209Z,101357.70
2018-02-25T18:23:46.654Z,101344.31
2018-02-25T18:26:14.138Z,101339.88
2018-02-25T18:28:41.598Z,101340.16
2018-02-25T18:31:09.221Z,101338.08
2018-02-25T18:33:36.689Z,101351.03
2018-02-25T18:36:04.141Z,101349.42
2018-02-25T18:38:31.633Z,101342.85
2018-02-25T18:40:59.092Z,101345.64
2018-02-25T18:43:26.583Z,101345.63
2018-02-25T18:45:54.026Z,101348.14
2018-02-25T18:48:21.481Z,101344.97
2018-02-25T18:50:48.941Z,101344.09
2018-02-25T18:53:16.381Z,101342.20
2018-02-25T18:55:44.157Z,101342.70
2018-02-25T18:58:11.609Z,101344.01
2018-02-25T19:00:39.716Z,101340.05
2018-02-25T19:03:07.258Z,101346.89
2018-02-25T19:05:34.702Z,101346.38
2018-02-25T19:08:02.181Z,101348.99
2018-02-25T19:10:29.658Z,101354.62
2018-02-25T19:12:57.189Z,101350.41
2018-02-25T19:15:24.637Z,101362.32
2018-02-25T19:17:52.076Z,101352.17
2018-02-25T19:20:19.540Z,101352.98
2018-02-25T19:22:47.005Z,101358.30
2018-02-25T19:25:14.885Z,101364.58
2018-02-25T19:27:42.342Z,101363.78
2018-02-25T19:30:09.791Z,101352.03
2018-02-25T19:32:37.266Z,101366.00
2018-02-25T19:35:04.742Z,101360.80
2018-02-25T19:37:37.945Z,101365.03
2018-02-25T19:40:05.396Z,101365.23
2018-02-25T19:42:32.883Z,101363.20
2018-02-25T19:45:00.325Z,101363.44
2018-02-25T19:47:27.914Z,101371.98
2018-02-25T19:49:55.360Z,101366.25
2018-02-25T19:52:22.801Z,101371.28
2018-02-25T19:54:50.274Z,101373.38
2018-02-25T19:57:17.725Z,101368.47
2018-02-25T19:59:45.201Z,101365.19
2018-02-25T20:02:12.675Z,101369.53
2018-02-25T20:04:40.129Z,101366.52
2018-02-25T20:07:07.594Z,101377.39
2018-02-25T20:09:36.585Z,101377.52
2018-02-25T20:12:04.072Z,101372.10
2018-02-25T20:14:31.540Z,101383.20
2018-02-25T20:16:58.986Z,101370.77
2018-02-25T20:19:26.480Z,101381.89
2018-02-25T20:21:53.924Z,101380.02
2018-02-25T20:24:21.476Z,101395.42
2018-02-25T20:26:48.893Z,101381.12
2018-02-25T20:29:16.341Z,101388.52
2018-02-25T20:31:43.848Z,101389.88
2018-02-25T20:34:11.381Z,101390.91
2018-02-25T20:36:39.100Z,101399.24
2018-02-25T20:39:06.554Z,101396.96
2018-02-25T20:41:34.943Z,101403.47
2018-02-25T20:44:02.408Z,101395.59
2018-02-25T20:46:30.137Z,101397.38
2018-02-25T20:48:57.768Z,101395.56
2018-02-25T20:51:25.222Z,101403.34
2018-02-25T20:53:52.731Z,101405.05
2018-02-25T20:56:20.149Z,101403.78
2018-02-25T20:58:47.606Z,101403.97
2018-02-25T21:01:15.253Z,101404.11
2018-02-25T21:03:42.715Z,101400.45
2018-02-25T21:06:10.161Z,101398.02
2018-02-25T21:08:37.638Z,101402.90
2018-02-25T21:11:05.081Z,101438.61
2018-02-25T21:13:32.664Z,101407.75
2018-02-25T21:16:00.118Z,101406.86
2018-02-25T21:18:27.561Z,101408.45
2018-02-25T21:20:55.029Z,101412.80
2018-02-25T21:23:22.473Z,101419.36
2018-02-25T21:25:50.096Z,101418.50
2018-02-25T21:28:17.546Z,101417.88
2018-02-25T21:30:45.036Z,101417.17
2018-02-25T21:33:12.815Z,101416.31
2018-02-25T21:35:40.369Z,101417.88
2018-02-25T21:38:08.081Z,101424.15
2018-02-25T21:40:35.586Z,101425.42
2018-02-25T21:43:03.034Z,101422.19
2018-02-25T21:45:31.379Z,101426.05
2018-02-25T21:47:58.839Z,101429.35
2018-02-25T21:50:26.564Z,101428.68
2018-02-25T21:52:54.011Z,101426.94
2018-02-25T21:55:21.466Z,101428.97
2018-02-25T21:57:54.477Z,101441.59
2018-02-25T22:03:32.565Z,101438.43
2018-02-25T22:06:00.018Z,101440.97
2018-02-25T22:08:27.461Z,101440.55
2018-02-25T22:10:54.942Z,101437.92
2018-02-25T22:13:22.385Z,101441.55
2018-02-25T22:15:49.833Z,101443.53
2018-02-25T22:18:17.293Z,101437.11
2018-02-25T22:20:44.728Z,101436.50
2018-02-25T22:23:12.169Z,101438.62
2018-02-25T22:25:39.777Z,101435.61
2018-02-25T22:28:07.221Z,101442.81
2018-02-25T22:30:34.667Z,101442.30
2018-02-25T22:33:02.407Z,101446.64
2018-02-25T22:35:29.849Z,101441.81
2018-02-25T22:37:57.289Z,101449.38
2018-02-25T22:40:25.893Z,101450.98
2018-02-25T22:42:53.361Z,101451.64
2018-02-25T22:45:21.053Z,101449.69
2018-02-25T22:47:48.536Z,101450.30
2018-02-25T22:50:16.188Z,101442.51
2018-02-25T22:52:43.630Z,101460.22
2018-02-25T22:55:11.105Z,101452.39
2018-02-25T22:57:38.554Z,101452.35
2018-02-25T23:00:06.005Z,101459.08
2018-02-25T23:02:33.865Z,101457.71
2018-02-25T23:05:01.395Z,101456.21
2018-02-25T23:07:28.845Z,101460.67
2018-02-25T23:09:56.332Z,101455.31
2018-02-25T23:12:23.776Z,101458.56
2018-02-25T23:14:51.546Z,101459.52
2018-02-25T23:17:19.015Z,101462.15
2018-02-25T23:19:46.457Z,101463.20
2018-02-25T23:22:13.918Z,101463.58
2018-02-25T23:24:41.362Z,101469.80
2018-02-25T23:27:09.173Z,101468.18
2018-02-25T23:29:36.625Z,101463.91
2018-02-25T23:32:04.081Z,101463.17
2018-02-25T23:34:31.563Z,101462.81
2018-02-25T23:36:59.009Z,101468.25
2018-02-25T23:39:26.645Z,101461.82
2018-02-25T23:41:54.097Z,101466.71
2018-02-25T23:44:21.548Z,101463.81
2018-02-25T23:46:49.017Z,101466.52
2018-02-25T23:49:16.463Z,101459.47
2018-02-25T23:51:43.946Z,101461.86
2018-02-25T23:54:11.390Z,101468.27
2018-02-25T23:56:38.834Z,101463.67
2018-02-25T23:59:06.301Z,101466.98
